Time;durP1;ratioP1;P1;durP2;ratioP2;P2;SDS_P1;SDS_P2;PMS_P1;PMS_P2;Temp;Humidity;BMP_temperature;BMP_pressure;BME280_temperature;BME280_humidity;BME280_pressure;Samples;Min_cycle;Max_cycle;Signal;HPM_P1;HPM_P2
2022/01/16 00:04:07;;;;;;;105.63;32.53;;;;;;;-3.58;98.73;94441.59;5010366;28;21785;-59
2022/01/16 00:06:35;;;;;;;103.70;32.50;;;;;;;-3.56;98.54;94443.94;5010672;28;20091;-59
2022/01/16 00:09:03;;;;;;;107.80;33.55;;;;;;;-3.55;99.03;94465.09;5026151;28;20442;-60
2022/01/16 00:11:30;;;;;;;101.10;32.10;;;;;;;-3.48;98.87;94468.13;5010841;28;20046;-60
2022/01/16 00:13:57;;;;;;;103.13;31.65;;;;;;;-3.48;98.81;94483.41;5010101;28;20576;-60
2022/01/16 00:16:24;;;;;;;107.28;32.08;;;;;;;-3.42;98.47;94482.97;5010930;28;20054;-60
2022/01/16 00:18:54;;;;;;;98.93;31.37;;;;;;;-3.36;98.25;94472.88;5010494;28;20042;-60
2022/01/16 00:21:27;;;;;;;104.75;32.20;;;;;;;-3.36;98.45;94451.41;5025623;28;20049;-59
2022/01/16 00:23:54;;;;;;;107.95;31.35;;;;;;;-3.35;98.29;94425.34;5042180;28;20042;-60
2022/01/16 00:26:22;;;;;;;101.00;31.27;;;;;;;-3.32;98.32;94438.94;5011004;28;20050;-60
2022/01/16 00:28:51;;;;;;;99.78;30.33;;;;;;;-3.22;98.11;94452.03;5010085;28;20052;-59
2022/01/16 00:31:19;;;;;;;95.47;30.07;;;;;;;-3.21;97.61;94450.16;5042525;28;20049;-60
2022/01/16 00:33:46;;;;;;;100.80;31.13;;;;;;;-3.18;97.84;94446.81;5010039;28;20052;-60
2022/01/16 00:36:17;;;;;;;96.50;30.45;;;;;;;-3.22;97.55;94460.09;5010850;28;20045;-60
2022/01/16 00:38:45;;;;;;;100.82;30.38;;;;;;;-3.23;97.26;94455.81;5041729;28;20044;-59
2022/01/16 00:41:14;;;;;;;100.00;31.60;;;;;;;-3.29;97.14;94472.41;5010725;28;20467;-60
2022/01/16 00:43:41;;;;;;;90.27;29.13;;;;;;;-3.29;97.64;94448.25;5041267;28;20060;-59
2022/01/16 00:46:08;;;;;;;108.60;30.15;;;;;;;-3.25;97.51;94467.97;5010830;28;20056;-59
2022/01/16 00:48:35;;;;;;;87.30;29.88;;;;;;;-3.14;97.16;94465.78;5010238;28;20054;-59
2022/01/16 00:51:02;;;;;;;83.15;27.38;;;;;;;-3.08;96.75;94483.31;5010747;28;20052;-58
2022/01/16 00:53:29;;;;;;;93.55;29.27;;;;;;;-3.14;96.55;94463.09;5010227;28;20049;-58
2022/01/16 00:55:55;;;;;;;103.50;29.07;;;;;;;-3.05;96.56;94466.56;5024947;28;20046;-59
2022/01/16 00:58:22;;;;;;;81.43;28.42;;;;;;;-3.03;96.29;94464.38;5010452;28;20056;-59
2022/01/16 01:00:49;;;;;;;88.10;28.42;;;;;;;-3.10;96.43;94470.22;5009360;28;20060;-60
2022/01/16 01:03:17;;;;;;;89.57;29.67;;;;;;;-3.18;96.17;94476.34;5010286;28;20528;-59
2022/01/16 01:05:43;;;;;;;93.57;30.88;;;;;;;-3.27;96.52;94487.09;5009412;28;20096;-59
2022/01/16 01:08:11;;;;;;;87.53;29.43;;;;;;;-3.26;97.37;94495.91;5010215;28;20045;-59
2022/01/16 01:10:40;;;;;;;89.40;28.67;;;;;;;-3.22;96.79;94497.69;5009288;28;20128;-59
2022/01/16 01:13:21;;;;;;;81.22;28.85;;;;;;;-3.29;96.91;94486.59;5009105;28;20050;-58
2022/01/16 01:15:52;;;;;;;78.18;26.42;;;;;;;-3.39;96.71;94445.88;5009128;28;20324;-59
2022/01/16 01:18:23;;;;;;;102.10;28.00;;;;;;;-3.48;97.56;94406.41;5009980;28;20371;-59
2022/01/16 01:20:51;;;;;;;88.07;27.03;;;;;;;-3.57;97.90;94397.53;5009094;28;20054;-59
2022/01/16 01:23:18;;;;;;;89.63;28.55;;;;;;;-3.61;98.49;94389.31;5009718;28;20069;-59
2022/01/16 01:25:45;;;;;;;97.63;27.27;;;;;;;-3.64;98.49;94387.28;5008840;28;20052;-59
2022/01/16 01:28:12;;;;;;;97.75;28.73;;;;;;;-3.72;98.45;94384.56;5024762;28;20052;-59
2022/01/16 01:30:41;;;;;;;90.47;28.58;;;;;;;-3.70;98.89;94401.16;5009095;28;20049;-59
2022/01/16 01:33:08;;;;;;;89.90;28.33;;;;;;;-3.70;98.52;94426.09;5009593;28;20048;-59
2022/01/16 01:35:39;;;;;;;81.13;27.50;;;;;;;-3.70;98.39;94439.50;5009162;28;20410;-59
2022/01/16 01:38:08;;;;;;;88.97;28.00;;;;;;;-3.66;97.96;94464.59;5009614;28;20107;-59
2022/01/16 01:40:38;;;;;;;78.32;26.75;;;;;;;-3.67;98.24;94452.28;5009044;28;20077;-59
2022/01/16 01:51:36;;;;;;;98.57;29.25;;;;;;;-3.76;98.24;94464.06;5009883;28;20060;-58
2022/01/16 01:54:05;;;;;;;84.88;27.80;;;;;;;-3.70;97.38;94465.50;5007972;28;21422;-58
2022/01/16 01:56:32;;;;;;;87.05;28.48;;;;;;;-3.71;97.03;94464.72;5008551;28;20527;-54
2022/01/16 01:59:01;;;;;;;87.00;25.67;;;;;;;-3.73;97.48;94468.84;5009210;28;20054;-58
2022/01/16 02:01:29;;;;;;;84.28;28.80;;;;;;;-3.70;98.35;94476.25;5009142;28;20073;-58
2022/01/16 02:03:56;;;;;;;88.30;28.63;;;;;;;-3.72;98.06;94481.13;5007620;28;20038;-59
2022/01/16 02:06:28;;;;;;;86.32;28.52;;;;;;;-3.69;97.77;94494.72;5008715;28;20072;-59
2022/01/16 02:08:58;;;;;;;86.65;27.95;;;;;;;-3.68;97.77;94500.88;5006682;28;20057;-58
2022/01/16 02:11:29;;;;;;;80.90;27.83;;;;;;;-3.58;96.92;94489.06;5009066;28;20050;-59
2022/01/16 02:35:56;;;;;;;89.07;29.45;;;;;;;-3.79;98.03;94480.81;5003657;28;20391;-58
2022/01/16 02:38:23;;;;;;;89.03;26.93;;;;;;;-3.77;98.32;94489.34;5013166;28;20406;-59
2022/01/16 02:40:55;;;;;;;84.20;28.83;;;;;;;-3.81;98.59;94489.94;5011996;28;20413;-58
2022/01/16 02:43:30;;;;;;;91.40;30.02;;;;;;;-3.70;98.82;94486.97;5013023;28;20517;-58
2022/01/16 02:46:35;;;;;;;85.53;26.27;;;;;;;-3.60;97.92;94478.66;5011868;28;20507;-58
2022/01/16 02:48:50;;;;;;;70.82;25.73;;;;;;;-3.58;97.33;94475.66;5011990;28;20046;-58
2022/01/16 02:51:19;;;;;;;74.80;25.20;;;;;;;-3.38;96.66;94455.47;5012606;28;20167;-58
2022/01/16 02:53:48;;;;;;;71.13;24.20;;;;;;;-3.44;95.64;94447.59;5011743;28;20068;-59
2022/01/16 02:56:16;;;;;;;69.50;24.92;;;;;;;-3.68;94.69;94441.84;5012482;28;20052;-59
2022/01/16 02:58:44;;;;;;;58.22;21.98;;;;;;;-3.53;94.13;94448.69;5011805;28;20075;-58
2022/01/16 03:01:12;;;;;;;74.22;24.80;;;;;;;-3.49;94.27;94449.63;5011002;28;20060;-59
2022/01/16 03:03:40;;;;;;;82.23;26.77;;;;;;;-3.43;94.61;94446.47;5011686;28;20046;-59
2022/01/16 03:06:07;;;;;;;73.60;25.95;;;;;;;-3.61;94.56;94437.63;5027303;28;20050;-59
2022/01/16 03:08:34;;;;;;;72.95;25.10;;;;;;;-3.58;94.72;94441.59;5011626;28;20072;-58
2022/01/16 03:11:48;;;;;;;79.20;26.45;;;;;;;-3.73;95.69;94442.00;5012358;28;20046;-58
2022/01/16 03:13:49;;;;;;;79.13;25.42;;;;;;;-3.54;95.98;94429.13;5007923;28;20046;-59
2022/01/16 03:16:22;;;;;;;77.73;24.30;;;;;;;-3.53;94.96;94416.50;5012119;28;20045;-59
2022/01/16 03:21:55;;;;;;;75.70;25.13;;;;;;;-3.53;94.65;94424.53;5011768;28;20045;-58
2022/01/16 03:24:26;;;;;;;61.08;22.77;;;;;;;-3.70;93.47;94427.97;5024927;28;20081;-58
2022/01/16 03:26:58;;;;;;;63.33;23.20;;;;;;;-3.67;93.85;94425.44;5011381;28;20048;-59
2022/01/16 03:29:27;;;;;;;63.90;22.30;;;;;;;-3.61;92.70;94428.78;5012038;28;20050;-59
2022/01/16 03:31:55;;;;;;;68.75;23.92;;;;;;;-3.74;93.14;94422.47;5011080;28;20038;-58
2022/01/16 03:34:22;;;;;;;61.42;22.40;;;;;;;-3.74;92.21;94427.81;5011551;28;20060;-58
2022/01/16 03:36:49;;;;;;;62.92;22.00;;;;;;;-3.69;92.58;94419.63;5010250;28;20444;-58
2022/01/16 03:39:16;;;;;;;57.53;21.08;;;;;;;-3.57;92.42;94428.97;5011804;28;20045;-58
2022/01/16 03:41:43;;;;;;;66.33;22.67;;;;;;;-3.75;92.75;94428.91;5010905;28;20719;-58
2022/01/16 03:44:10;;;;;;;63.63;22.63;;;;;;;-3.77;93.58;94433.00;5011629;28;20438;-58
2022/01/16 03:46:41;;;;;;;65.10;22.92;;;;;;;-3.72;92.88;94427.50;5011148;28;20107;-59
2022/01/16 03:49:15;;;;;;;66.35;23.80;;;;;;;-3.91;93.14;94425.88;5043204;28;20052;-59
2022/01/16 03:51:44;;;;;;;80.53;28.65;;;;;;;-4.02;94.82;94429.94;5010911;28;20072;-59
2022/01/16 03:54:14;;;;;;;74.57;25.33;;;;;;;-4.00;94.74;94430.44;5011422;28;20056;-58
2022/01/16 03:56:41;;;;;;;77.68;25.63;;;;;;;-4.02;94.99;94427.28;5011037;28;20046;-59
2022/01/16 03:59:09;;;;;;;66.80;24.40;;;;;;;-3.91;94.83;94441.97;5011716;28;20046;-58
2022/01/16 04:01:37;;;;;;;68.63;23.90;;;;;;;-3.95;94.28;94445.56;5011305;28;20042;-58
2022/01/16 04:04:04;;;;;;;68.50;24.02;;;;;;;-4.24;95.93;94445.00;5011376;28;20132;-58
2022/01/16 04:06:31;;;;;;;69.77;24.10;;;;;;;-4.29;96.66;94447.00;5011565;28;20045;-58
2022/01/16 04:08:59;;;;;;;73.30;25.13;;;;;;;-4.25;96.41;94450.66;5010277;28;20949;-58
2022/01/16 04:11:28;;;;;;;70.22;24.33;;;;;;;-4.27;96.43;94447.50;5010929;28;20046;-58
2022/01/16 04:14:04;;;;;;;72.63;24.17;;;;;;;-4.22;96.14;94453.50;5010141;28;20048;-58
2022/01/16 04:16:31;;;;;;;68.85;23.42;;;;;;;-4.31;96.31;94449.22;5010778;28;20061;-58
2022/01/16 04:18:59;;;;;;;79.63;26.30;;;;;;;-4.32;96.67;94444.97;5009891;28;21536;-58
2022/01/16 04:21:27;;;;;;;78.78;25.88;;;;;;;-4.35;96.89;94456.28;5010869;28;20380;-58
2022/01/16 04:23:54;;;;;;;81.50;25.45;;;;;;;-4.43;96.54;94449.78;5010228;28;20042;-58
2022/01/16 04:26:23;;;;;;;72.97;24.67;;;;;;;-4.49;96.58;94449.13;5026166;28;20050;-58
2022/01/16 04:28:51;;;;;;;73.07;24.58;;;;;;;-4.55;96.79;94452.25;5010188;28;20042;-58
2022/01/16 04:31:18;;;;;;;77.77;25.10;;;;;;;-4.52;97.02;94452.44;5010767;28;20052;-58
2022/01/16 04:33:45;;;;;;;73.63;25.05;;;;;;;-4.60;97.26;94439.78;5008744;28;20076;-58
2022/01/16 04:36:12;;;;;;;85.28;28.88;;;;;;;-4.61;97.56;94446.22;5009271;28;20531;-58
2022/01/16 04:38:44;;;;;;;86.95;27.10;;;;;;;-4.66;97.48;94447.16;5010273;28;20048;-58
2022/01/16 04:44:02;;;;;;;75.63;24.77;;;;;;;-4.67;97.15;94450.13;5009425;28;21625;-58
2022/01/16 04:46:31;;;;;;;72.07;22.95;;;;;;;-4.72;97.21;94440.34;5010668;28;20050;-58
2022/01/16 04:48:59;;;;;;;86.13;27.42;;;;;;;-4.78;97.46;94440.78;5009644;28;20802;-58
2022/01/16 04:51:28;;;;;;;76.60;26.42;;;;;;;-4.76;97.11;94446.63;5010604;28;20068;-57
2022/01/16 04:53:55;;;;;;;78.03;25.20;;;;;;;-4.76;97.12;94449.28;5009688;28;20042;-58
2022/01/16 04:56:22;;;;;;;71.17;23.67;;;;;;;-4.79;96.52;94448.00;5010247;28;20053;-58
2022/01/16 04:58:49;;;;;;;78.28;24.83;;;;;;;-4.76;96.69;94446.63;5008273;28;20059;-58
2022/01/16 05:01:16;;;;;;;75.38;24.77;;;;;;;-4.78;96.65;94454.94;5010230;28;20050;-58
2022/01/16 05:03:43;;;;;;;73.50;23.65;;;;;;;-4.88;96.49;94455.19;5009442;28;20054;-60
2022/01/16 05:06:10;;;;;;;71.60;24.15;;;;;;;-4.95;97.08;94454.81;5010501;28;20404;-58
2022/01/16 05:08:37;;;;;;;71.53;23.97;;;;;;;-4.98;97.25;94458.13;5009917;28;20483;-59
2022/01/16 05:11:06;;;;;;;82.47;24.88;;;;;;;-4.99;97.17;94453.84;5010044;28;20072;-58
2022/01/16 05:18:50;;;;;;;82.18;25.60;;;;;;;-5.07;97.69;94456.16;5008004;28;20122;-58
2022/01/16 05:21:18;;;;;;;69.67;22.53;;;;;;;-5.07;98.34;94458.84;5008851;28;20060;-58
2022/01/16 05:23:44;;;;;;;77.40;24.05;;;;;;;-5.11;97.92;94457.06;5009011;28;20049;-58
2022/01/16 05:26:13;;;;;;;76.32;24.85;;;;;;;-5.15;98.49;94469.47;5009906;28;20149;-58
2022/01/16 05:28:40;;;;;;;76.88;24.77;;;;;;;-5.15;98.03;94464.91;5009494;28;20115;-58
2022/01/16 05:31:06;;;;;;;82.82;26.90;;;;;;;-5.18;98.26;94475.44;5009707;28;20351;-58
2022/01/16 05:33:33;;;;;;;75.60;24.40;;;;;;;-5.14;98.54;94471.84;5009400;28;20308;-58
2022/01/16 05:36:00;;;;;;;67.15;21.42;;;;;;;-5.16;98.19;94478.59;5009660;28;20064;-58
2022/01/16 05:38:27;;;;;;;71.82;22.83;;;;;;;-5.18;97.93;94494.16;5009697;28;20049;-59
2022/01/16 05:40:54;;;;;;;71.53;24.42;;;;;;;-5.19;97.65;94487.22;5007734;28;20394;-59
2022/01/16 05:43:21;;;;;;;71.05;22.98;;;;;;;-5.17;97.91;94491.19;5009383;28;20388;-58
2022/01/16 05:45:47;;;;;;;70.33;22.30;;;;;;;-5.16;97.27;94498.09;5008851;28;20037;-59
2022/01/16 05:48:14;;;;;;;66.05;22.25;;;;;;;-5.22;97.11;94493.97;5009525;28;20046;-58
2022/01/16 05:50:41;;;;;;;62.97;22.05;;;;;;;-5.22;97.09;94493.97;5009079;28;20046;-58
2022/01/16 05:53:08;;;;;;;68.63;22.65;;;;;;;-5.23;97.21;94487.84;5009191;28;20037;-58
2022/01/16 05:55:38;;;;;;;59.90;21.73;;;;;;;-5.22;96.84;94488.63;5009133;28;20442;-58
2022/01/16 05:58:06;;;;;;;63.83;20.87;;;;;;;-5.24;96.24;94491.59;5009347;28;20052;-58
2022/01/16 06:00:36;;;;;;;59.08;20.02;;;;;;;-5.20;96.56;94496.34;5007814;28;20049;-57
2022/01/16 06:03:03;;;;;;;63.78;22.00;;;;;;;-5.20;96.66;94491.78;5009583;28;20052;-59
2022/01/16 06:05:30;;;;;;;67.00;22.38;;;;;;;-5.18;96.21;94494.16;5009809;28;20459;-59
2022/01/16 06:08:00;;;;;;;59.90;20.63;;;;;;;-5.20;96.26;94499.03;5008418;28;20280;-59
2022/01/16 06:10:27;;;;;;;59.93;21.20;;;;;;;-5.20;95.84;94501.69;5009312;28;20049;-59
2022/01/16 06:12:54;;;;;;;61.13;21.98;;;;;;;-5.18;95.85;94505.66;5008570;28;20053;-59
2022/01/16 06:15:22;;;;;;;64.93;24.83;;;;;;;-5.16;95.32;94513.38;5009090;28;20491;-59
2022/01/16 06:17:50;;;;;;;61.78;21.35;;;;;;;-5.12;95.23;94525.06;5008449;28;20041;-59
2022/01/16 06:20:17;;;;;;;60.17;21.75;;;;;;;-5.10;94.97;94536.25;5009164;28;20064;-59
2022/01/16 06:22:45;;;;;;;55.83;20.03;;;;;;;-5.06;94.51;94542.59;5008717;28;20050;-59
2022/01/16 06:25:13;;;;;;;56.55;20.40;;;;;;;-5.11;93.41;94545.38;5009091;28;20050;-59
2022/01/16 06:27:40;;;;;;;55.65;20.00;;;;;;;-5.33;93.62;94549.59;5007116;28;20056;-59
2022/01/16 06:30:09;;;;;;;53.58;19.40;;;;;;;-5.31;93.79;94550.06;5008707;28;20050;-59
2022/01/16 06:32:36;;;;;;;57.05;21.08;;;;;;;-5.24;93.47;94553.13;5008870;28;20048;-59
2022/01/16 06:35:04;;;;;;;61.33;23.43;;;;;;;-5.29;93.61;94537.19;5039918;28;20076;-59
2022/01/16 06:37:31;;;;;;;58.65;22.13;;;;;;;-5.34;92.72;94539.97;5008921;28;20050;-60
2022/01/16 06:39:58;;;;;;;59.60;25.15;;;;;;;-5.37;92.11;94537.09;5007969;28;20394;-59
2022/01/16 06:42:25;;;;;;;56.65;22.52;;;;;;;-5.36;92.14;94539.47;5009031;28;20495;-60
2022/01/16 06:44:52;;;;;;;55.90;20.98;;;;;;;-5.37;91.82;94539.75;5008170;28;20045;-59
2022/01/16 06:47:19;;;;;;;62.33;22.30;;;;;;;-5.42;91.45;94546.81;5007676;28;20046;-59
2022/01/16 06:49:46;;;;;;;81.03;25.95;;;;;;;-5.46;91.73;94542.34;5008337;28;20062;-59
2022/01/16 06:52:12;;;;;;;73.68;25.77;;;;;;;-5.43;91.47;94549.78;5008575;28;20050;-60
2022/01/16 06:54:39;;;;;;;65.15;22.05;;;;;;;-5.39;92.23;94556.13;4990579;28;20061;-59
2022/01/16 06:57:07;;;;;;;58.92;21.50;;;;;;;-5.74;91.94;94561.06;5008561;28;20041;-59
2022/01/16 06:59:35;;;;;;;52.40;19.17;;;;;;;-5.58;91.53;94564.25;5008242;28;20046;-59
2022/01/16 07:02:02;;;;;;;53.05;19.60;;;;;;;-5.53;90.81;94558.00;5008817;28;20428;-60
2022/01/16 07:04:29;;;;;;;51.95;19.55;;;;;;;-5.50;91.57;94568.09;5023728;28;20093;-59
2022/01/16 07:06:56;;;;;;;49.95;18.52;;;;;;;-5.62;91.69;94565.94;5007669;28;20042;-59
2022/01/16 07:09:23;;;;;;;56.78;19.20;;;;;;;-5.70;92.85;94570.09;5008561;28;20048;-59
2022/01/16 07:11:49;;;;;;;53.20;18.90;;;;;;;-5.71;92.74;94579.22;5010443;28;20129;-59
2022/01/16 07:14:16;;;;;;;53.63;19.02;;;;;;;-5.62;92.42;94582.75;5012507;28;20045;-59
2022/01/16 07:16:43;;;;;;;51.90;21.15;;;;;;;-5.54;91.79;94567.13;4972935;28;20051;-60
2022/01/16 07:19:10;;;;;;;50.67;18.90;;;;;;;-5.52;92.36;94571.06;4987809;28;20327;-59
2022/01/16 07:21:37;;;;;;;56.35;21.70;;;;;;;-5.52;91.67;94576.44;4972603;28;20043;-59
2022/01/16 07:24:04;;;;;;;81.83;30.33;;;;;;;-5.42;92.00;94576.22;4972894;28;20054;-60
2022/01/16 07:26:31;;;;;;;47.67;18.20;;;;;;;-5.57;91.07;94587.25;4973359;28;20511;-59
2022/01/16 07:28:57;;;;;;;49.65;19.33;;;;;;;-5.59;90.50;94578.72;4971797;28;20630;-59
2022/01/16 07:31:24;;;;;;;46.22;17.67;;;;;;;-5.49;90.48;94591.88;5004284;28;20047;-59
2022/01/16 07:33:51;;;;;;;48.40;18.08;;;;;;;-5.43;90.73;94577.31;4972378;28;20081;-61
2022/01/16 07:36:18;;;;;;;52.33;20.20;;;;;;;-5.42;89.96;94584.25;4971900;28;20042;-59
2022/01/16 07:38:45;;;;;;;49.92;19.02;;;;;;;-5.32;90.44;94593.16;4972542;28;20054;-60
2022/01/16 07:41:11;;;;;;;49.05;19.52;;;;;;;-5.49;90.03;94591.09;4972553;28;20101;-60
2022/01/16 07:43:38;;;;;;;49.97;18.83;;;;;;;-5.38;90.37;94595.16;4972127;28;20050;-60
2022/01/16 07:46:05;;;;;;;50.75;19.63;;;;;;;-5.46;89.92;94590.50;4972612;28;20053;-60
2022/01/16 07:48:32;;;;;;;56.43;20.87;;;;;;;-5.41;90.28;94601.09;4972698;28;20141;-60
2022/01/16 07:50:59;;;;;;;51.92;19.33;;;;;;;-5.18;89.28;94606.53;4971348;28;20692;-60
2022/01/16 07:53:25;;;;;;;58.55;20.17;;;;;;;-5.15;88.96;94605.94;4972389;28;20049;-60
2022/01/16 07:55:52;;;;;;;51.47;20.63;;;;;;;-5.11;88.19;94607.72;4971724;28;20058;-60
2022/01/16 07:58:19;;;;;;;64.90;24.52;;;;;;;-5.05;88.75;94608.38;4971331;28;20081;-60
2022/01/16 08:00:46;;;;;;;99.37;33.07;;;;;;;-4.96;88.46;94619.19;4970615;28;20049;-60
2022/01/16 08:03:13;;;;;;;111.68;35.50;;;;;;;-4.96;87.38;94611.97;4972537;28;20508;-60
2022/01/16 08:05:40;;;;;;;65.28;25.63;;;;;;;-5.51;88.25;94603.97;5003130;28;20108;-61
2022/01/16 08:08:07;;;;;;;58.65;23.60;;;;;;;-4.63;88.05;94609.91;4970878;28;20069;-60
2022/01/16 08:10:33;;;;;;;64.68;24.85;;;;;;;-1.58;83.46;94598.41;4971634;28;20523;-61
2022/01/16 08:13:00;;;;;;;55.63;24.57;;;;;;;0.84;72.50;94591.50;4972090;28;20050;-59
2022/01/16 08:15:27;;;;;;;49.97;23.40;;;;;;;1.78;63.08;94587.78;4990891;28;20057;-59
2022/01/16 08:17:54;;;;;;;49.35;23.63;;;;;;;3.94;61.52;94583.03;5009065;28;20038;-61
2022/01/16 08:20:21;;;;;;;57.70;27.73;;;;;;;3.68;56.26;94588.25;5011178;28;20075;-59
2022/01/16 08:22:48;;;;;;;57.50;27.63;;;;;;;2.82;59.91;94586.25;5010065;28;20120;-59
2022/01/16 08:25:15;;;;;;;47.83;24.00;;;;;;;4.48;54.74;94588.72;5010828;28;20058;-59
2022/01/16 08:27:42;;;;;;;46.05;23.40;;;;;;;5.59;50.69;94580.47;5010784;28;20539;-59
2022/01/16 08:30:10;;;;;;;39.00;21.92;;;;;;;7.16;46.92;94579.91;5010765;28;20491;-59
2022/01/16 08:32:38;;;;;;;38.08;21.30;;;;;;;8.21;43.46;94587.63;5009229;28;20041;-59
2022/01/16 08:35:06;;;;;;;33.63;19.67;;;;;;;8.64;42.20;94589.75;5010717;28;20054;-59
2022/01/16 08:37:33;;;;;;;37.47;20.63;;;;;;;6.73;43.00;94593.94;5010457;28;20458;-59
2022/01/16 08:40:00;;;;;;;37.50;21.25;;;;;;;6.43;44.74;94595.94;5010632;28;20060;-60
2022/01/16 08:42:27;;;;;;;42.53;22.60;;;;;;;7.27;43.52;94596.38;5010752;28;20048;-60
2022/01/16 08:44:53;;;;;;;46.00;23.42;;;;;;;8.82;41.42;94601.53;5010304;28;20067;-60
2022/01/16 08:47:20;;;;;;;44.42;23.75;;;;;;;9.83;39.09;94605.09;5009310;28;20052;-60
2022/01/16 08:49:47;;;;;;;40.17;22.17;;;;;;;10.08;38.12;94605.06;5010024;28;20487;-60
2022/01/16 08:52:15;;;;;;;35.78;20.42;;;;;;;11.19;36.25;94615.59;5010439;28;20057;-60
2022/01/16 08:54:41;;;;;;;36.78;22.92;;;;;;;10.88;36.36;94614.59;5008587;28;20049;-60
2022/01/16 08:57:08;;;;;;;36.65;22.48;;;;;;;11.43;35.46;94610.34;5010184;28;20046;-60
2022/01/16 08:59:35;;;;;;;39.10;24.73;;;;;;;11.92;34.40;94627.63;5024912;28;20438;-60
2022/01/16 09:02:02;;;;;;;35.00;22.53;;;;;;;11.03;36.18;94618.06;4992759;28;20042;-60
2022/01/16 09:04:29;;;;;;;33.65;21.33;;;;;;;12.05;33.34;94610.63;5010804;28;20056;-60
2022/01/16 09:06:55;;;;;;;32.60;20.77;;;;;;;11.68;33.39;94620.34;5010130;28;20049;-60
2022/01/16 09:09:22;;;;;;;32.33;21.05;;;;;;;11.19;35.02;94637.56;5009121;28;20045;-59
2022/01/16 09:11:49;;;;;;;32.80;21.65;;;;;;;12.00;33.81;94628.34;5009663;28;20042;-60
2022/01/16 09:14:16;;;;;;;33.07;20.67;;;;;;;10.76;35.19;94640.53;5008196;28;20052;-60
2022/01/16 09:16:43;;;;;;;33.88;21.48;;;;;;;10.39;36.89;94639.09;5009452;28;20309;-60
2022/01/16 09:19:10;;;;;;;32.70;21.05;;;;;;;12.17;33.82;94643.13;5009586;28;20046;-60
2022/01/16 09:21:37;;;;;;;33.92;20.85;;;;;;;12.46;33.27;94642.84;5008290;28;20056;-60
2022/01/16 09:24:04;;;;;;;30.67;20.42;;;;;;;13.47;30.63;94648.66;5009611;28;20064;-60
2022/01/16 09:26:31;;;;;;;31.93;20.93;;;;;;;14.31;30.13;94638.63;5009767;28;20045;-60
2022/01/16 09:28:58;;;;;;;32.78;21.45;;;;;;;13.90;29.54;94647.22;5009420;28;20038;-60
2022/01/16 09:31:25;;;;;;;33.03;22.08;;;;;;;12.93;31.11;94660.38;5009614;28;20062;-61
2022/01/16 09:33:54;;;;;;;34.92;22.17;;;;;;;12.26;32.59;94651.69;5007235;28;20053;-60
2022/01/16 09:36:20;;;;;;;35.05;22.55;;;;;;;12.98;31.35;94653.66;5009179;28;20048;-61
2022/01/16 09:38:47;;;;;;;34.50;22.50;;;;;;;14.04;30.43;94660.78;5009279;28;20046;-61
2022/01/16 09:41:14;;;;;;;34.15;22.50;;;;;;;16.05;28.15;94658.72;5009567;28;20492;-61
2022/01/16 09:43:41;;;;;;;31.77;21.83;;;;;;;14.83;29.27;94664.13;5009103;28;20052;-61
2022/01/16 09:46:08;;;;;;;33.17;22.38;;;;;;;15.64;28.73;94660.06;5009510;28;20049;-61
2022/01/16 09:48:35;;;;;;;34.40;23.02;;;;;;;16.14;27.62;94665.22;5009276;28;20052;-61
2022/01/16 09:51:02;;;;;;;32.00;22.90;;;;;;;15.91;28.07;94668.16;5009393;28;20084;-61
2022/01/16 09:53:29;;;;;;;33.13;22.98;;;;;;;15.95;27.88;94664.09;5009592;28;20042;-61
2022/01/16 09:55:56;;;;;;;41.63;28.08;;;;;;;12.96;31.14;94670.59;5009109;28;20045;-61
2022/01/16 09:58:23;;;;;;;33.88;23.00;;;;;;;11.59;34.85;94671.09;5009367;28;20038;-61
2022/01/16 10:00:51;;;;;;;38.45;24.08;;;;;;;11.02;36.04;94673.38;5008902;28;20049;-61
2022/01/16 10:03:35;;;;;;;38.77;25.67;;;;;;;13.12;32.76;94660.91;5009253;28;20050;-61
2022/01/16 10:06:17;;;;;;;37.40;24.55;;;;;;;14.32;31.67;94658.72;5008495;28;20054;-62
2022/01/16 10:08:45;;;;;;;36.45;23.85;;;;;;;15.17;29.52;94667.41;5007309;28;20038;-61
2022/01/16 10:11:39;;;;;;;30.95;21.73;;;;;;;15.30;29.10;94672.28;5008985;28;20064;-61
2022/01/16 10:14:45;;;;;;;31.55;21.45;;;;;;;17.22;26.58;94659.59;5008087;28;20053;-61
2022/01/16 10:17:18;;;;;;;31.63;21.50;;;;;;;14.60;29.65;94664.97;5008073;28;20466;-61
2022/01/16 10:19:45;;;;;;;30.15;20.88;;;;;;;11.27;34.57;94670.47;5008619;28;20501;-61
2022/01/16 10:22:14;;;;;;;31.13;20.88;;;;;;;9.88;37.28;94666.97;5009071;28;20125;-61
2022/01/16 10:24:41;;;;;;;35.58;23.23;;;;;;;8.69;38.54;94672.25;5008434;28;20058;-61
2022/01/16 10:27:08;;;;;;;31.58;20.90;;;;;;;11.82;34.67;94666.97;5009159;28;20148;-61
2022/01/16 10:29:36;;;;;;;30.50;20.73;;;;;;;13.12;32.73;94661.72;5008654;28;20502;-61
2022/01/16 10:32:18;;;;;;;34.50;22.67;;;;;;;13.75;31.15;94666.00;5008957;28;20056;-62
2022/01/16 10:34:53;;;;;;;33.08;22.45;;;;;;;14.40;30.10;94651.88;5040237;28;20376;-61
2022/01/16 10:37:30;;;;;;;34.85;22.85;;;;;;;11.35;34.07;94663.78;5008974;28;20058;-61
2022/01/16 10:40:17;;;;;;;34.60;22.48;;;;;;;11.88;34.90;94670.84;5038585;28;21578;-61
2022/01/16 10:42:55;;;;;;;32.03;21.73;;;;;;;12.32;34.02;94666.56;5008038;28;20671;-61
2022/01/16 10:45:28;;;;;;;31.05;21.55;;;;;;;13.79;31.75;94658.44;5009799;28;20064;-61
2022/01/16 10:47:57;;;;;;;34.25;23.00;;;;;;;13.83;31.50;94674.94;5012788;28;20048;-61
2022/01/16 10:50:28;;;;;;;33.97;23.05;;;;;;;10.96;35.69;94675.75;5012706;28;20056;-61
2022/01/16 10:52:56;;;;;;;31.73;21.10;;;;;;;14.56;30.47;94668.56;5012375;28;20042;-61
2022/01/16 10:55:31;;;;;;;30.40;20.80;;;;;;;15.81;28.68;94655.34;5012705;28;20129;-62
2022/01/16 10:58:09;;;;;;;30.65;21.48;;;;;;;11.28;35.61;94669.31;5011999;28;20034;-61
2022/01/16 11:00:38;;;;;;;28.60;19.55;;;;;;;12.94;33.66;94670.22;5012588;28;20045;-61
2022/01/16 11:03:07;;;;;;;30.05;20.60;;;;;;;14.11;31.08;94657.91;5010850;28;20045;-62
2022/01/16 11:05:41;;;;;;;28.30;19.45;;;;;;;14.75;30.55;94657.97;5012243;28;20048;-60
2022/01/16 11:08:12;;;;;;;29.60;20.63;;;;;;;15.43;29.18;94659.31;5012309;28;20058;-61
2022/01/16 11:10:44;;;;;;;30.55;21.45;;;;;;;15.89;28.88;94665.03;4992962;28;20050;-61
2022/01/16 11:13:13;;;;;;;30.58;20.92;;;;;;;13.86;31.37;94674.09;4992892;28;20038;-61
2022/01/16 11:15:43;;;;;;;30.00;20.13;;;;;;;15.44;29.29;94673.94;4992186;28;20069;-61
2022/01/16 11:18:12;;;;;;;28.15;20.27;;;;;;;15.51;29.47;94669.03;4992694;28;20053;-61
2022/01/16 11:20:40;;;;;;;28.60;19.97;;;;;;;9.52;39.33;94684.19;4992389;28;20053;-61
2022/01/16 11:25:42;;;;;;;30.38;20.58;;;;;;;9.68;40.40;94686.56;4992066;28;20050;-61
2022/01/16 11:28:10;;;;;;;28.55;19.13;;;;;;;12.21;35.36;94684.38;4992392;28;20046;-61
2022/01/16 11:30:41;;;;;;;30.00;20.10;;;;;;;12.37;35.96;94681.84;4992289;28;20046;-62
2022/01/16 11:33:08;;;;;;;29.90;18.93;;;;;;;12.68;34.68;94676.44;4992654;28;20056;-60
2022/01/16 11:35:41;;;;;;;30.63;21.20;;;;;;;15.48;29.28;94675.41;4991943;28;20047;-60
2022/01/16 11:38:09;;;;;;;30.92;21.10;;;;;;;14.56;31.28;94684.38;4991942;28;20047;-61
2022/01/16 11:40:47;;;;;;;31.83;21.80;;;;;;;13.93;31.76;94674.75;4991808;28;20061;-59
2022/01/16 11:43:17;;;;;;;29.67;20.70;;;;;;;15.38;29.03;94676.44;4991851;28;20046;-60
2022/01/16 11:46:12;;;;;;;32.03;21.90;;;;;;;13.30;32.31;94675.31;4991700;28;20054;-60
2022/01/16 11:48:49;;;;;;;34.35;22.52;;;;;;;12.48;33.78;94662.50;4991644;28;20050;-60
2022/01/16 11:51:51;;;;;;;36.50;24.92;;;;;;;14.24;32.00;94657.31;4992029;28;20089;-60
2022/01/16 11:54:30;;;;;;;35.20;24.85;;;;;;;11.29;35.77;94652.44;4992972;28;21586;-60
2022/01/16 11:57:22;;;;;;;37.08;26.02;;;;;;;10.18;38.71;94672.03;4990689;28;20049;-60
2022/01/16 12:00:08;;;;;;;40.10;26.60;;;;;;;11.46;36.77;94664.47;4990373;28;20053;-60
2022/01/16 12:02:42;;;;;;;39.63;25.40;;;;;;;9.86;39.14;94666.59;4991487;28;20668;-59
2022/01/16 12:05:09;;;;;;;36.63;24.45;;;;;;;12.17;35.48;94667.88;4992097;28;20050;-60
2022/01/16 12:07:36;;;;;;;35.90;23.60;;;;;;;9.10;40.50;94679.44;4991497;28;20046;-60
2022/01/16 12:10:04;;;;;;;35.88;23.40;;;;;;;11.34;37.18;94671.22;5007001;28;20048;-59
2022/01/16 12:12:31;;;;;;;36.07;23.13;;;;;;;11.33;37.67;94661.44;5042994;28;20046;-60